Smithville, Illinois
Current Conditions -  °F | °C
As of 11:54 PM on Saturday 25 Oct 2014 (Local Time) from KPIA Reporting Station
Clear Clear  
Wind Chill: 57°   Ceiling: Unl
Heat Index: 57°   Visibility: 10mi
Dew Point: 35°   Wind: 3mph
Humidity: 44%   Direction: 350°N
Pressure: 30.03"   Gusts: NA
Location:  40.6926°N, 89.794°W
Report Text: KPIA 260454Z 35003KT 10SM CLR 14/02 A3003 RMK AO2 SLP168 T01390017
Loading
Personal Weather Stations






























Interactive Weather Map
Tropical Storm Tracking
New forecast layout! Learn more

10-Day Weather Forecast

Advertisements
Track Severe Weather on mobile